Time;durP1;ratioP1;P1;durP2;ratioP2;P2;SDS_P1;SDS_P2;PMS_P1;PMS_P2;Temp;Humidity;BMP_temperature;BMP_pressure;BME280_temperature;BME280_humidity;BME280_pressure;Samples;Min_cycle;Max_cycle;Signal;HPM_P1;HPM_P2
2021/07/15 00:00:32;;;;;;;0.93;0.70;;;16.70;99.90;;;;;;5110963;28;20450;-75
2021/07/15 00:03:02;;;;;;;0.60;0.47;;;16.70;99.90;;;;;;5111931;28;20452;-76
2021/07/15 00:05:29;;;;;;;1.03;0.60;;;16.60;99.90;;;;;;5111238;28;21006;-76
2021/07/15 00:07:56;;;;;;;0.90;0.50;;;16.70;99.90;;;;;;5111325;28;21266;-75
2021/07/15 00:10:29;;;;;;;0.80;0.67;;;16.70;99.90;;;;;;5110154;28;20439;-75
2021/07/15 00:12:57;;;;;;;1.93;0.70;;;16.60;99.90;;;;;;5111104;28;20517;-76
2021/07/15 00:15:27;;;;;;;0.60;0.50;;;16.40;99.90;;;;;;5110041;28;20436;-74
2021/07/15 00:17:55;;;;;;;1.10;0.70;;;16.30;99.90;;;;;;5111064;28;20455;-75
2021/07/15 00:20:24;;;;;;;0.60;0.40;;;16.30;99.90;;;;;;5110417;28;21026;-75
2021/07/15 00:22:52;;;;;;;0.60;0.50;;;16.30;99.90;;;;;;5111729;28;20530;-75
2021/07/15 00:25:21;;;;;;;0.70;0.63;;;16.30;99.90;;;;;;5110907;28;20447;-75
2021/07/15 00:27:49;;;;;;;0.70;0.53;;;16.20;99.90;;;;;;5111583;28;20444;-74
2021/07/15 00:30:16;;;;;;;0.70;0.50;;;16.10;99.90;;;;;;5111209;28;20466;-76
2021/07/15 00:32:43;;;;;;;0.80;0.60;;;16.20;99.90;;;;;;5110687;28;20478;-75
2021/07/15 00:35:11;;;;;;;0.70;0.60;;;16.10;99.90;;;;;;5111325;28;20450;-74
2021/07/15 00:37:40;;;;;;;0.60;0.40;;;16.20;99.90;;;;;;5110914;28;20468;-74
2021/07/15 00:40:10;;;;;;;1.00;0.50;;;16.20;99.90;;;;;;5110858;28;20447;-75
2021/07/15 00:42:37;;;;;;;0.60;0.40;;;16.10;99.90;;;;;;5110535;28;20450;-76
2021/07/15 00:45:07;;;;;;;0.93;0.50;;;16.00;99.90;;;;;;5111292;28;20489;-75
2021/07/15 00:47:34;;;;;;;1.10;0.70;;;16.00;99.90;;;;;;5113963;28;20973;-75
2021/07/15 00:50:01;;;;;;;0.70;0.50;;;16.00;99.90;;;;;;5114978;28;20452;-75
2021/07/15 00:52:28;;;;;;;0.90;0.50;;;16.00;99.90;;;;;;5114262;28;20442;-75
2021/07/15 00:54:56;;;;;;;0.90;0.60;;;15.80;99.90;;;;;;5106571;28;20435;-75
2021/07/15 00:57:24;;;;;;;1.20;0.60;;;15.80;99.90;;;;;;5113845;28;20965;-74
2021/07/15 00:59:51;;;;;;;0.70;0.60;;;15.80;99.90;;;;;;5116561;28;20444;-75
2021/07/15 01:02:18;;;;;;;0.70;0.47;;;15.80;99.90;;;;;;5118036;28;20446;-75
2021/07/15 01:04:45;;;;;;;2.00;0.90;;;15.80;99.90;;;;;;5114601;28;20482;-75
2021/07/15 01:07:12;;;;;;;1.73;1.23;;;15.80;99.90;;;;;;5114421;28;20448;-75
2021/07/15 01:09:39;;;;;;;0.77;0.57;;;15.90;99.90;;;;;;5113838;28;20488;-75
2021/07/15 01:12:25;;;;;;;1.23;0.50;;;15.90;99.90;;;;;;5114555;28;20448;-75
2021/07/15 01:15:05;;;;;;;0.77;0.60;;;15.90;99.90;;;;;;5114494;28;20519;-75
2021/07/15 01:17:38;;;;;;;0.73;0.50;;;15.90;99.90;;;;;;5113757;28;20835;-75
2021/07/15 01:20:34;;;;;;;1.47;0.53;;;15.90;99.90;;;;;;5114252;28;20436;-75
2021/07/15 01:23:13;;;;;;;1.73;0.50;;;15.90;99.90;;;;;;5107422;28;20448;-75
2021/07/15 01:26:03;;;;;;;0.60;0.40;;;15.80;99.90;;;;;;5113456;28;20435;-75
2021/07/15 01:28:57;;;;;;;3.67;0.60;;;15.70;99.90;;;;;;5113627;28;20552;-75
2021/07/15 01:31:25;;;;;;;0.80;0.60;;;15.70;99.90;;;;;;5112551;28;21053;-71
2021/07/15 01:33:53;;;;;;;1.50;0.50;;;15.70;99.90;;;;;;5113855;28;20454;-76
2021/07/15 01:36:22;;;;;;;0.70;0.50;;;15.70;99.90;;;;;;5114087;28;20436;-76
2021/07/15 01:38:55;;;;;;;1.00;0.53;;;15.70;99.90;;;;;;5113895;28;20828;-76
2021/07/15 01:41:26;;;;;;;0.80;0.50;;;15.60;99.90;;;;;;5112121;28;20523;-75
2021/07/15 01:43:57;;;;;;;0.60;0.40;;;15.60;99.90;;;;;;5113642;28;20459;-76
2021/07/15 01:46:25;;;;;;;0.97;0.60;;;15.60;99.90;;;;;;5113969;28;20515;-75
2021/07/15 01:48:52;;;;;;;0.67;0.50;;;15.50;99.90;;;;;;5113949;28;20454;-75
2021/07/15 01:51:20;;;;;;;0.60;0.40;;;15.50;99.90;;;;;;5113811;28;20439;-76
2021/07/15 01:53:49;;;;;;;1.23;0.60;;;15.40;99.90;;;;;;5113371;28;20446;-76
2021/07/15 01:56:17;;;;;;;1.50;0.50;;;15.40;99.90;;;;;;5113556;28;20444;-76
2021/07/15 01:58:46;;;;;;;0.73;0.60;;;15.40;99.90;;;;;;5101487;28;20801;-77
2021/07/15 02:01:15;;;;;;;0.60;0.40;;;15.30;99.90;;;;;;5109981;28;20453;-77
2021/07/15 02:03:46;;;;;;;0.60;0.50;;;15.40;99.90;;;;;;5092218;28;20483;-76
2021/07/15 02:06:14;;;;;;;1.37;0.67;;;15.40;99.90;;;;;;5093274;28;20451;-77
2021/07/15 02:08:42;;;;;;;1.00;0.40;;;15.40;99.90;;;;;;5097387;28;20452;-77
2021/07/15 02:11:10;;;;;;;1.73;0.50;;;15.40;99.90;;;;;;5113424;28;20448;-75
2021/07/15 02:13:38;;;;;;;2.50;0.60;;;15.40;99.90;;;;;;5112867;28;20475;-76
2021/07/15 02:16:07;;;;;;;0.70;0.50;;;15.40;99.90;;;;;;5112765;28;20442;-74
2021/07/15 02:18:35;;;;;;;0.70;0.50;;;15.50;99.90;;;;;;5112271;28;20467;-76
2021/07/15 02:21:04;;;;;;;1.03;0.60;;;15.50;99.90;;;;;;5113199;28;20798;-76
2021/07/15 02:23:32;;;;;;;1.67;0.40;;;15.40;99.90;;;;;;5112482;28;20920;-76
2021/07/15 02:26:00;;;;;;;0.90;0.50;;;15.40;99.90;;;;;;5112495;28;20539;-74
2021/07/15 02:28:29;;;;;;;1.33;0.67;;;15.40;99.90;;;;;;5112905;28;20444;-76
2021/07/15 02:31:02;;;;;;;1.20;0.70;;;15.40;99.90;;;;;;5112728;28;20881;-75
2021/07/15 02:33:31;;;;;;;0.70;0.47;;;15.40;99.90;;;;;;5112269;28;20436;-75
2021/07/15 02:36:02;;;;;;;0.60;0.40;;;15.40;99.90;;;;;;5112824;28;20439;-76
2021/07/15 02:38:33;;;;;;;0.60;0.50;;;15.40;99.90;;;;;;5111805;28;20559;-74
2021/07/15 02:41:00;;;;;;;0.70;0.50;;;15.40;99.90;;;;;;5112742;28;20868;-77
2021/07/15 02:43:27;;;;;;;0.60;0.50;;;15.40;99.90;;;;;;5112483;28;20458;-77
2021/07/15 02:45:54;;;;;;;0.60;0.40;;;15.40;99.90;;;;;;5112444;28;20450;-75
2021/07/15 02:48:22;;;;;;;1.17;0.83;;;15.40;99.90;;;;;;5113139;28;20493;-75
2021/07/15 02:50:49;;;;;;;2.20;0.57;;;15.40;99.90;;;;;;5111917;28;20850;-77
2021/07/15 02:53:16;;;;;;;0.67;0.40;;;15.40;99.90;;;;;;5112086;28;20527;-77
2021/07/15 02:55:51;;;;;;;2.20;0.57;;;15.50;99.90;;;;;;5111837;28;20440;-75
2021/07/15 02:58:22;;;;;;;1.00;0.43;;;15.50;99.90;;;;;;5112239;28;20466;-77
2021/07/15 03:00:54;;;;;;;0.70;0.40;;;15.50;99.90;;;;;;5111479;28;20444;-76
2021/07/15 03:03:31;;;;;;;1.90;0.50;;;15.50;99.90;;;;;;5112745;28;20427;-77
2021/07/15 03:06:02;;;;;;;1.03;0.53;;;15.60;99.90;;;;;;5112504;28;20848;-76
2021/07/15 03:08:32;;;;;;;0.90;0.60;;;15.60;99.90;;;;;;5112515;28;20522;-76
2021/07/15 03:11:04;;;;;;;0.60;0.40;;;15.50;99.90;;;;;;5112372;28;20847;-76
2021/07/15 03:13:33;;;;;;;1.23;0.53;;;15.60;99.90;;;;;;5111952;28;20427;-75
2021/07/15 03:16:00;;;;;;;0.90;0.50;;;15.70;99.90;;;;;;5111627;28;20436;-76
2021/07/15 03:18:29;;;;;;;2.33;0.73;;;15.70;99.90;;;;;;5112047;28;20541;-76
2021/07/15 03:20:58;;;;;;;1.57;0.40;;;15.80;99.90;;;;;;5112003;28;20440;-76
2021/07/15 03:23:26;;;;;;;0.97;0.60;;;15.80;99.90;;;;;;5112700;28;20526;-77
2021/07/15 03:25:57;;;;;;;3.43;0.70;;;15.70;99.90;;;;;;5116390;28;20432;-77
2021/07/15 03:28:29;;;;;;;1.00;0.50;;;15.70;99.90;;;;;;5114399;28;20438;-76
2021/07/15 03:31:02;;;;;;;2.00;0.60;;;15.70;99.90;;;;;;5094283;28;20781;-77
2021/07/15 03:33:30;;;;;;;0.93;0.67;;;15.50;99.90;;;;;;5111696;28;20999;-77
2021/07/15 03:35:56;;;;;;;0.70;0.50;;;15.60;99.90;;;;;;5112196;28;20446;-76
2021/07/15 03:38:24;;;;;;;0.60;0.40;;;15.80;99.90;;;;;;5111667;28;20462;-76
2021/07/15 03:40:51;;;;;;;0.70;0.40;;;15.80;99.90;;;;;;5111312;28;20542;-76
2021/07/15 03:43:19;;;;;;;1.00;0.50;;;15.90;99.90;;;;;;5111955;28;20438;-75
2021/07/15 03:45:50;;;;;;;1.67;0.50;;;16.00;99.90;;;;;;5110481;28;20440;-76
2021/07/15 03:48:18;;;;;;;0.70;0.50;;;16.00;99.90;;;;;;5111672;28;20428;-76
2021/07/15 03:50:47;;;;;;;0.80;0.60;;;15.90;99.90;;;;;;5111341;28;20775;-76
2021/07/15 03:53:17;;;;;;;1.83;0.83;;;15.80;99.90;;;;;;5111794;28;20436;-75
2021/07/15 03:55:46;;;;;;;2.30;0.60;;;16.00;99.90;;;;;;5111205;28;20434;-75
2021/07/15 03:58:14;;;;;;;0.80;0.50;;;15.80;99.90;;;;;;5110998;28;20548;-74
2021/07/15 04:00:45;;;;;;;0.70;0.50;;;15.80;99.90;;;;;;5109676;28;20527;-76
2021/07/15 04:03:18;;;;;;;1.13;0.60;;;16.00;99.90;;;;;;5100346;28;20459;-76
2021/07/15 04:05:46;;;;;;;1.23;0.53;;;16.00;99.90;;;;;;5109090;28;20471;-75
2021/07/15 04:08:14;;;;;;;1.00;0.50;;;16.20;99.90;;;;;;5111280;28;20531;-74
2021/07/15 04:10:44;;;;;;;0.87;0.50;;;16.30;99.90;;;;;;5111280;28;20478;-76
2021/07/15 04:13:13;;;;;;;1.00;0.60;;;16.20;99.90;;;;;;5111517;28;20446;-72
2021/07/15 04:16:06;;;;;;;0.80;0.60;;;16.10;99.90;;;;;;5111099;28;20788;-72
2021/07/15 04:18:39;;;;;;;0.60;0.50;;;16.10;99.90;;;;;;5111173;28;20505;-70
2021/07/15 04:21:07;;;;;;;1.63;0.50;;;16.40;99.90;;;;;;5113550;28;20428;-73
2021/07/15 04:23:36;;;;;;;0.80;0.50;;;16.40;99.90;;;;;;5114943;28;20530;-76
2021/07/15 04:26:04;;;;;;;1.00;0.50;;;16.40;99.90;;;;;;5115754;28;20522;-75
2021/07/15 04:28:32;;;;;;;1.30;1.00;;;16.30;99.90;;;;;;5115160;28;20805;-75
2021/07/15 04:31:03;;;;;;;0.90;0.70;;;16.30;99.90;;;;;;5112974;28;20781;-72
2021/07/15 04:33:31;;;;;;;0.77;0.57;;;16.30;99.90;;;;;;5115341;28;20523;-72
2021/07/15 04:36:00;;;;;;;1.50;0.70;;;16.40;99.90;;;;;;5114954;28;20431;-72
2021/07/15 04:38:27;;;;;;;0.90;0.60;;;16.40;99.90;;;;;;5115094;28;20772;-71
2021/07/15 04:40:54;;;;;;;1.27;0.60;;;16.40;99.90;;;;;;5114545;28;20574;-72
2021/07/15 04:43:23;;;;;;;1.20;0.67;;;16.40;99.90;;;;;;5114594;28;20455;-75
2021/07/15 04:45:51;;;;;;;4.20;3.73;;;16.50;99.90;;;;;;5114387;28;20450;-75
2021/07/15 04:48:18;;;;;;;1.00;0.50;;;16.40;99.90;;;;;;5114588;28;20863;-74
2021/07/15 04:50:47;;;;;;;1.03;0.70;;;16.30;99.90;;;;;;5114188;28;20444;-75
2021/07/15 04:53:19;;;;;;;1.13;0.70;;;16.40;99.90;;;;;;5114736;28;20447;-71
2021/07/15 04:55:47;;;;;;;1.13;0.90;;;16.40;99.90;;;;;;5114260;28;20975;-72
2021/07/15 04:58:15;;;;;;;1.00;0.70;;;16.40;99.90;;;;;;5114666;28;20520;-72
2021/07/15 05:00:43;;;;;;;1.23;0.80;;;16.50;99.90;;;;;;5114003;28;20566;-75
2021/07/15 05:03:23;;;;;;;0.70;0.60;;;16.40;99.90;;;;;;5114847;28;20454;-74
2021/07/15 05:05:50;;;;;;;2.00;0.50;;;16.40;99.90;;;;;;5113989;28;20486;-75
2021/07/15 05:08:18;;;;;;;0.60;0.50;;;16.50;99.90;;;;;;5114700;28;20534;-74
2021/07/15 05:10:45;;;;;;;1.00;0.70;;;16.50;99.90;;;;;;5114123;28;20633;-74
2021/07/15 05:13:12;;;;;;;0.70;0.50;;;16.50;99.90;;;;;;5114447;28;20446;-74
2021/07/15 05:15:38;;;;;;;0.97;0.50;;;16.50;99.90;;;;;;5114066;28;20439;-74
2021/07/15 05:18:05;;;;;;;2.10;0.70;;;16.40;99.90;;;;;;5114261;28;20539;-74
2021/07/15 05:20:32;;;;;;;2.53;0.80;;;16.40;99.90;;;;;;5114164;28;20476;-74
2021/07/15 05:22:59;;;;;;;0.80;0.70;;;16.50;99.90;;;;;;5114010;28;20452;-74
2021/07/15 05:25:27;;;;;;;2.60;0.53;;;16.60;99.90;;;;;;5114123;28;20938;-75
2021/07/15 05:27:54;;;;;;;0.80;0.60;;;16.50;99.90;;;;;;5113821;28;20432;-74
2021/07/15 05:30:21;;;;;;;0.90;0.50;;;16.60;99.90;;;;;;5114317;28;20530;-74
2021/07/15 05:32:48;;;;;;;1.03;0.60;;;16.70;99.90;;;;;;5112431;28;20454;-74
2021/07/15 05:35:16;;;;;;;1.10;1.00;;;16.70;99.90;;;;;;5114256;28;20447;-75
2021/07/15 05:37:43;;;;;;;1.10;0.60;;;16.80;99.90;;;;;;5113642;28;20446;-74
2021/07/15 05:40:11;;;;;;;2.60;0.67;;;16.70;99.90;;;;;;5113787;28;20882;-74
2021/07/15 05:42:39;;;;;;;1.03;0.73;;;16.80;99.90;;;;;;5114146;28;20518;-74
2021/07/15 05:45:07;;;;;;;1.13;0.53;;;16.90;99.90;;;;;;5114136;28;20799;-75
2021/07/15 05:47:34;;;;;;;1.10;0.50;;;16.80;99.90;;;;;;5113870;28;20808;-74
2021/07/15 05:50:01;;;;;;;2.47;0.70;;;16.70;99.90;;;;;;5112786;28;20490;-75
2021/07/15 05:52:28;;;;;;;1.37;0.50;;;16.80;99.90;;;;;;5114090;28;20474;-74
2021/07/15 05:54:57;;;;;;;0.70;0.63;;;16.80;99.90;;;;;;5113560;28;20535;-74
2021/07/15 05:57:24;;;;;;;1.50;0.47;;;16.80;99.90;;;;;;5113493;28;20521;-73
2021/07/15 05:59:52;;;;;;;0.90;0.50;;;16.80;99.90;;;;;;5112699;28;20479;-75
2021/07/15 06:02:19;;;;;;;2.87;0.60;;;16.90;99.90;;;;;;5113845;28;20982;-75
2021/07/15 06:04:46;;;;;;;0.60;0.43;;;16.90;99.90;;;;;;5113072;28;20478;-74
2021/07/15 06:07:13;;;;;;;0.60;0.40;;;17.00;99.90;;;;;;5113751;28;20476;-74
2021/07/15 06:09:40;;;;;;;1.00;0.60;;;17.00;99.90;;;;;;5114069;28;20447;-74
2021/07/15 06:12:07;;;;;;;0.60;0.40;;;17.00;99.90;;;;;;5113797;28;20511;-75
2021/07/15 06:14:34;;;;;;;1.53;0.83;;;17.10;99.90;;;;;;5113346;28;20442;-74
2021/07/15 06:17:03;;;;;;;1.67;0.50;;;17.20;99.90;;;;;;5112595;28;21098;-74
2021/07/15 06:19:30;;;;;;;0.80;0.50;;;17.30;99.90;;;;;;5113426;28;20497;-74
2021/07/15 06:21:57;;;;;;;1.90;0.50;;;17.30;99.90;;;;;;5112369;27;20436;-74
2021/07/15 06:24:24;;;;;;;0.60;0.50;;;17.30;99.90;;;;;;5112957;28;20534;-75
2021/07/15 06:26:51;;;;;;;0.70;0.50;;;17.40;99.90;;;;;;5112431;28;20435;-74
2021/07/15 06:29:18;;;;;;;0.97;0.60;;;17.40;99.90;;;;;;5112947;28;20483;-74
2021/07/15 06:31:45;;;;;;;2.97;0.70;;;;;;;;;;5112094;28;20457;-74
2021/07/15 06:34:14;;;;;;;0.80;0.50;;;;;;;;;;5112839;28;20437;-74
2021/07/15 06:36:44;;;;;;;1.10;0.70;;;17.40;99.90;;;;;;5112753;28;20443;-75
2021/07/15 06:39:11;;;;;;;0.70;0.57;;;17.80;99.90;;;;;;5112910;28;20432;-74
2021/07/15 06:41:39;;;;;;;0.60;0.40;;;17.70;99.90;;;;;;5112580;28;20535;-74
2021/07/15 06:44:07;;;;;;;1.13;0.50;;;17.80;99.90;;;;;;5111856;28;20438;-74
2021/07/15 06:46:34;;;;;;;1.33;0.50;;;17.90;99.90;;;;;;5112747;28;20526;-75
2021/07/15 06:49:01;;;;;;;0.70;0.57;;;17.90;99.90;;;;;;5112234;28;20482;-75
2021/07/15 06:51:29;;;;;;;0.80;0.60;;;18.20;99.90;;;;;;5112968;28;20469;-75
2021/07/15 06:53:56;;;;;;;0.63;0.47;;;17.90;99.90;;;;;;5112177;28;20523;-75
2021/07/15 06:56:23;;;;;;;1.10;0.50;;;17.80;99.90;;;;;;5112877;28;20427;-74
2021/07/15 06:58:50;;;;;;;0.90;0.60;;;18.00;99.90;;;;;;5112063;28;20440;-75
2021/07/15 07:01:17;;;;;;;1.80;0.70;;;18.10;99.90;;;;;;5112324;28;20940;-75
2021/07/15 07:03:44;;;;;;;2.50;0.93;;;17.90;99.90;;;;;;5111673;28;20443;-73
2021/07/15 07:06:11;;;;;;;1.00;0.60;;;17.80;99.90;;;;;;5112060;28;20861;-74
2021/07/15 07:08:39;;;;;;;2.20;0.50;;;17.90;99.90;;;;;;5112358;28;20471;-74
2021/07/15 07:11:06;;;;;;;0.87;0.60;;;17.90;99.90;;;;;;5111796;28;20527;-74
2021/07/15 07:13:33;;;;;;;1.40;0.60;;;18.00;99.90;;;;;;5112350;28;20435;-74
2021/07/15 07:16:00;;;;;;;3.47;0.67;;;18.00;99.90;;;;;;5111413;28;20492;-74
2021/07/15 07:18:26;;;;;;;1.43;0.50;;;18.00;99.90;;;;;;5112056;28;20450;-74
2021/07/15 07:20:53;;;;;;;0.97;0.53;;;17.80;99.90;;;;;;5111362;28;20499;-75
2021/07/15 07:23:20;;;;;;;1.90;0.53;;;17.90;99.90;;;;;;5111847;28;20509;-75
2021/07/15 07:25:48;;;;;;;1.67;0.63;;;17.80;99.90;;;;;;5111630;28;20518;-74
2021/07/15 07:28:15;;;;;;;1.17;0.77;;;18.00;99.90;;;;;;5112432;28;20435;-74
2021/07/15 07:30:42;;;;;;;1.00;0.50;;;18.10;99.90;;;;;;5112993;28;20452;-75
2021/07/15 07:33:09;;;;;;;1.07;0.70;;;18.10;99.90;;;;;;5117118;28;20629;-75
2021/07/15 07:35:36;;;;;;;7.50;0.80;;;18.20;99.90;;;;;;5112220;28;20453;-75
2021/07/15 07:38:04;;;;;;;1.33;0.77;;;18.40;36.70;;;;;;5111366;28;20450;-75
2021/07/15 07:40:31;;;;;;;0.60;0.40;;;18.40;16.50;;;;;;5111595;28;20482;-75
2021/07/15 07:42:59;;;;;;;1.47;0.50;;;18.30;99.90;;;;;;5111642;28;20476;-75
2021/07/15 07:45:26;;;;;;;4.10;0.60;;;;;;;;;;5112016;28;20444;-75
2021/07/15 07:47:53;;;;;;;0.70;0.50;;;;;;;;;;5110991;28;20478;-74
2021/07/15 07:50:22;;;;;;;1.00;0.53;;;;;;;;;;5112198;28;20449;-75
2021/07/15 07:52:49;;;;;;;1.23;0.50;;;;;;;;;;5110977;28;20454;-74
2021/07/15 07:55:16;;;;;;;0.70;0.50;;;;;;;;;;5113140;28;20451;-74
2021/07/15 07:57:43;;;;;;;0.90;0.70;;;;;;;;;;5116271;28;20471;-75
2021/07/15 08:00:14;;;;;;;0.60;0.40;;;;;;;;;;5115624;28;20475;-75
2021/07/15 08:02:41;;;;;;;2.63;0.60;;;;;;;;;;5115653;28;20448;-74
2021/07/15 08:05:09;;;;;;;0.60;0.40;;;;;;;;;;5115387;28;20466;-74
2021/07/15 08:07:36;;;;;;;0.60;0.43;;;;;;;;;;5115909;28;20486;-74
2021/07/15 08:10:04;;;;;;;1.67;1.43;;;;;;;;;;5115275;28;20443;-74
2021/07/15 08:12:31;;;;;;;1.07;0.60;;;;;;;;;;5115817;28;20446;-74
2021/07/15 08:14:59;;;;;;;0.90;0.53;;;;;;;;;;5115247;28;20458;-73
2021/07/15 08:17:27;;;;;;;1.90;1.50;;;;;;;;;;5115410;28;20448;-74
2021/07/15 08:19:54;;;;;;;4.37;0.70;;;;;;;;;;5115083;28;20443;-74
2021/07/15 08:22:21;;;;;;;2.10;0.80;;;;;;;;;;5115619;28;20436;-74
2021/07/15 08:24:49;;;;;;;2.67;1.13;;;;;;;;;;5115563;28;20883;-72
2021/07/15 08:27:16;;;;;;;1.07;0.70;;;;;;;;;;5115641;28;20450;-74
2021/07/15 08:29:43;;;;;;;1.83;0.80;;;;;;;;;;5115545;28;20443;-74
2021/07/15 08:32:10;;;;;;;1.60;0.60;;;;;;;;;;5114432;28;20457;-74
2021/07/15 08:34:39;;;;;;;1.83;0.70;;;;;;;;;;5115154;28;20436;-73
2021/07/15 08:37:06;;;;;;;1.20;0.70;;;;;;;;;;5115054;28;20463;-74
2021/07/15 08:39:33;;;;;;;1.23;0.60;;;;;;;;;;5115410;28;20516;-74
2021/07/15 08:42:01;;;;;;;1.60;0.60;;;;;;;;;;5114831;28;20475;-74
2021/07/15 08:44:28;;;;;;;1.10;0.70;;;;;;;;;;5115273;28;20446;-74
2021/07/15 08:46:57;;;;;;;1.30;0.60;;;;;;;;;;5114552;28;20449;-74
2021/07/15 08:49:25;;;;;;;0.80;0.60;;;;;;;;;;5114882;28;20930;-73
2021/07/15 08:51:53;;;;;;;0.60;0.47;;;;;;;;;;5114478;28;20802;-73
2021/07/15 08:54:21;;;;;;;2.70;1.17;;;;;;;;;;5115045;28;20528;-74
2021/07/15 08:56:47;;;;;;;1.83;0.50;;;;;;;;;;5114820;28;20442;-74
2021/07/15 08:59:15;;;;;;;0.93;0.50;;;;;;;;;;5114461;28;20501;-74
2021/07/15 09:01:43;;;;;;;1.00;0.60;;;;;;;;;;5114608;28;20499;-75
2021/07/15 09:04:11;;;;;;;1.50;0.97;;;;;;;;;;5114139;28;20563;-75
2021/07/15 09:06:38;;;;;;;3.47;0.50;;;;;;;;;;5114039;28;20955;-75
2021/07/15 09:09:08;;;;;;;2.80;0.60;;;;;;;;;;5114284;28;20442;-74
2021/07/15 09:11:35;;;;;;;1.53;0.63;;;;;;;;;;5114626;28;20522;-74
2021/07/15 09:14:02;;;;;;;1.70;0.40;;;;;;;;;;5114068;28;20523;-74
2021/07/15 09:16:30;;;;;;;0.90;0.60;;;;;;;;;;5114609;28;20531;-74
2021/07/15 09:19:02;;;;;;;1.10;0.63;;;;;;;;;;5113986;28;20500;-74
2021/07/15 09:21:31;;;;;;;0.67;0.47;;;;;;;;;;5114567;28;20840;-75
2021/07/15 09:23:59;;;;;;;1.73;0.60;;;;;;;;;;5113850;28;20466;-74
2021/07/15 09:26:30;;;;;;;0.80;0.60;;;;;;;;;;5114171;28;20446;-74
2021/07/15 09:29:13;;;;;;;1.00;0.70;;;;;;;;;;5114002;28;20440;-74
2021/07/15 09:31:51;;;;;;;1.97;0.70;;;;;;;;;;5114070;28;20908;-74
2021/07/15 09:34:18;;;;;;;1.90;0.60;;;;;;;;;;5114004;28;20432;-74
2021/07/15 09:36:46;;;;;;;0.70;0.50;;;;;;;;;;5114062;28;20449;-74
2021/07/15 09:39:17;;;;;;;0.70;0.50;;;;;;;;;;5113643;28;20450;-74
2021/07/15 09:42:05;;;;;;;1.27;0.50;;;;;;;;;;5114135;28;20462;-74
2021/07/15 09:44:34;;;;;;;5.40;0.73;;;;;;;;;;5113950;28;20523;-74
2021/07/15 09:47:01;;;;;;;1.00;0.63;;;;;;;;;;5113430;28;20446;-74
2021/07/15 09:49:31;;;;;;;0.93;0.70;;;;;;;;;;5113474;28;20919;-75
2021/07/15 09:51:59;;;;;;;4.93;0.73;;;;;;;;;;5112990;28;20508;-74
2021/07/15 09:54:26;;;;;;;2.13;0.60;;;;;;;;;;5113828;28;20448;-74
2021/07/15 09:56:55;;;;;;;1.53;0.60;;;;;;;;;;5113914;28;20966;-74
2021/07/15 09:59:22;;;;;;;1.50;0.80;;;;;;;;;;5113489;28;20446;-74
2021/07/15 10:01:50;;;;;;;4.20;0.90;;;;;;;;;;5113666;28;20491;-74
2021/07/15 10:04:22;;;;;;;1.50;0.90;;;;;;;;;;5112828;28;20556;-74
2021/07/15 10:06:50;;;;;;;2.83;0.90;;;;;;;;;;5113691;28;20428;-74
2021/07/15 10:09:22;;;;;;;1.13;0.87;;;;;;;;;;5112612;28;20967;-74
2021/07/15 10:11:49;;;;;;;1.80;0.73;;;;;;;;;;5113200;28;20450;-74
2021/07/15 10:14:18;;;;;;;1.40;0.70;;;18.30;99.90;;;;;;5112612;28;20446;-74
2021/07/15 10:16:46;;;;;;;1.20;0.63;;;;;;;;;;5113261;28;20473;-74
2021/07/15 10:19:18;;;;;;;1.10;1.00;;;;;;;;;;5111981;28;20876;-74
2021/07/15 10:21:45;;;;;;;1.50;1.07;;;;;;;;;;5113055;28;20563;-75
2021/07/15 10:24:17;;;;;;;3.57;0.90;;;19.80;99.90;;;;;;5112587;28;20454;-74
2021/07/15 10:26:45;;;;;;;1.97;0.97;;;19.70;99.90;;;;;;5113369;28;20444;-74
2021/07/15 10:29:13;;;;;;;3.43;1.10;;;19.60;99.90;;;;;;5112553;28;20431;-74
2021/07/15 10:31:42;;;;;;;2.17;0.90;;;19.70;51.20;;;;;;5113228;28;20534;-74
2021/07/15 10:34:10;;;;;;;2.20;0.77;;;19.40;99.90;;;;;;5112243;28;20530;-73
2021/07/15 10:36:38;;;;;;;1.43;0.70;;;19.30;99.90;;;;;;5112869;28;20936;-73
2021/07/15 10:39:07;;;;;;;1.20;0.70;;;19.50;99.90;;;;;;5112245;28;20948;-73
2021/07/15 10:41:35;;;;;;;1.40;0.80;;;19.50;99.90;;;;;;5113271;28;20826;-73
2021/07/15 10:44:02;;;;;;;1.50;0.70;;;19.40;99.90;;;;;;5112374;28;20439;-74
2021/07/15 10:46:30;;;;;;;1.43;0.60;;;19.30;99.90;;;;;;5112729;28;20446;-73
2021/07/15 10:48:59;;;;;;;0.90;0.70;;;19.40;99.90;;;;;;5112612;28;20482;-71
2021/07/15 10:51:26;;;;;;;0.80;0.60;;;19.10;99.90;;;;;;5113045;28;20534;-73
2021/07/15 10:53:55;;;;;;;4.30;0.80;;;19.10;99.90;;;;;;5112453;28;20530;-73
2021/07/15 10:56:22;;;;;;;0.90;0.60;;;19.20;99.90;;;;;;5112060;28;20435;-73
2021/07/15 10:58:50;;;;;;;2.43;1.00;;;19.30;99.90;;;;;;5112739;28;20530;-75
2021/07/15 11:01:37;;;;;;;2.37;1.03;;;19.30;99.90;;;;;;5111683;28;20967;-75
2021/07/15 11:04:11;;;;;;;0.83;0.70;;;19.50;99.90;;;;;;5111861;28;20476;-74
2021/07/15 11:06:40;;;;;;;5.67;0.90;;;19.60;97.30;;;;;;5112705;28;20428;-75
2021/07/15 11:09:10;;;;;;;1.80;1.03;;;19.90;1.00;;;;;;5112110;28;20482;-75
2021/07/15 11:11:43;;;;;;;1.33;0.80;;;20.10;99.90;;;;;;5112552;28;20427;-75
2021/07/15 11:14:39;;;;;;;1.83;0.87;;;20.30;99.90;;;;;;5111960;28;20447;-75
2021/07/15 11:17:33;;;;;;;0.70;0.53;;;;;;;;;;5111936;28;20439;-75
2021/07/15 11:20:03;;;;;;;1.80;0.70;;;;;;;;;;5063884;28;20846;-75
2021/07/15 11:22:44;;;;;;;1.20;0.90;;;;;;;;;;5112215;28;20887;-75
2021/07/15 11:25:13;;;;;;;0.87;0.70;;;;;;;;;;5111648;28;20479;-74
2021/07/15 11:27:45;;;;;;;1.03;0.73;;;;;;;;;;5112256;28;20446;-74
2021/07/15 11:30:14;;;;;;;1.60;0.70;;;;;;;;;;5111676;28;20877;-75
2021/07/15 11:32:41;;;;;;;1.33;0.67;;;;;;;;;;5112464;28;20543;-74
2021/07/15 11:35:23;;;;;;;1.37;0.60;;;;;;;;;;5111691;28;20530;-75
2021/07/15 11:38:05;;;;;;;1.40;1.00;;;;;;;;;;5109140;28;20951;-75
2021/07/15 11:40:43;;;;;;;1.20;0.70;;;;;;;;;;5112122;28;20515;-75
2021/07/15 11:43:17;;;;;;;1.50;0.73;;;;;;;;;;5111587;28;20444;-75
2021/07/15 11:46:07;;;;;;;1.00;0.60;;;;;;;;;;5111998;28;20445;-75
2021/07/15 11:48:47;;;;;;;1.73;0.60;;;;;;;;;;5111984;28;20507;-75
2021/07/15 11:51:21;;;;;;;3.30;1.00;;;;;;;;;;5111598;28;20431;-75
2021/07/15 11:54:03;;;;;;;1.80;0.70;;;;;;;;;;5111859;28;20443;-74
2021/07/15 11:56:35;;;;;;;2.03;1.33;;;;;;;;;;5111496;28;20446;-75
2021/07/15 11:59:03;;;;;;;0.77;0.70;;;;;;;;;;5111784;28;20442;-74
2021/07/15 12:01:32;;;;;;;2.07;0.80;;;;;;;;;;5111582;28;20598;-74
2021/07/15 12:03:59;;;;;;;1.43;0.80;;;;;;;;;;5111713;28;20462;-75
2021/07/15 12:06:26;;;;;;;0.80;0.70;;;;;;;;;;5111441;28;20918;-75
2021/07/15 12:08:53;;;;;;;1.00;0.83;;;;;;;;;;5112125;28;20954;-75
2021/07/15 12:11:21;;;;;;;0.90;0.73;;;;;;;;;;5110885;28;20961;-73
2021/07/15 12:13:53;;;;;;;0.83;0.60;;;;;;;;;;5112322;28;20883;-74
2021/07/15 12:16:20;;;;;;;1.67;0.80;;;;;;;;;;5117262;28;20471;-74
2021/07/15 12:18:48;;;;;;;1.30;1.00;;;;;;;;;;5112011;28;20943;-74
2021/07/15 12:21:18;;;;;;;1.57;0.60;;;;;;;;;;5111129;28;20477;-74
2021/07/15 12:23:47;;;;;;;1.10;0.70;;;;;;;;;;5111336;28;20942;-74
2021/07/15 12:26:16;;;;;;;0.90;0.70;;;;;;;;;;5111040;28;20443;-74
2021/07/15 12:28:46;;;;;;;1.10;0.87;;;;;;;;;;5111399;28;20936;-73
2021/07/15 12:31:15;;;;;;;0.87;0.60;;;;;;;;;;5110576;28;20483;-74
2021/07/15 12:33:43;;;;;;;1.87;0.60;;;;;;;;;;5111652;28;20847;-73
2021/07/15 12:36:11;;;;;;;0.93;0.90;;;;;;;;;;5110967;28;20504;-74
2021/07/15 12:38:38;;;;;;;1.57;0.80;;;;;;;;;;5111201;28;20449;-74
2021/07/15 12:41:08;;;;;;;1.13;0.67;;;20.50;99.90;;;;;;5111365;28;20439;-73
2021/07/15 12:43:50;;;;;;;1.13;0.57;;;21.40;43.50;;;;;;5114900;28;20928;-74
2021/07/15 12:46:20;;;;;;;0.80;0.70;;;21.50;1.00;;;;;;5114295;28;20424;-75
2021/07/15 12:48:49;;;;;;;1.10;0.70;;;21.90;39.70;;;;;;5114834;28;20816;-74
2021/07/15 12:51:17;;;;;;;1.30;0.97;;;22.00;1.00;;;;;;5114549;28;20526;-75
2021/07/15 12:53:47;;;;;;;1.10;0.70;;;22.00;1.00;;;;;;5114841;28;20936;-75
2021/07/15 12:56:17;;;;;;;0.70;0.70;;;22.10;99.90;;;;;;5114394;28;20530;-75
2021/07/15 12:58:45;;;;;;;1.30;0.70;;;22.20;99.90;;;;;;5115105;28;20767;-75
2021/07/15 13:01:12;;;;;;;2.00;1.27;;;22.10;99.90;;;;;;5114336;28;20459;-75
2021/07/15 13:03:40;;;;;;;1.93;0.90;;;22.20;99.90;;;;;;5114623;28;20435;-75
2021/07/15 13:06:07;;;;;;;0.80;0.80;;;22.40;49.80;;;;;;5114384;28;20431;-75
2021/07/15 13:08:45;;;;;;;1.37;0.80;;;22.20;99.90;;;;;;5114820;28;20446;-76
2021/07/15 13:14:14;;;;;;;1.73;1.10;;;22.00;1.00;;;;;;5115066;28;20758;-75
2021/07/15 13:16:44;;;;;;;1.10;1.00;;;21.90;1.00;;;;;;5114437;28;21021;-75
2021/07/15 13:19:13;;;;;;;1.57;1.00;;;22.10;99.90;;;;;;5114088;28;20446;-75
2021/07/15 13:21:41;;;;;;;1.30;1.00;;;22.30;99.90;;;;;;5114672;28;20565;-75
2021/07/15 13:24:09;;;;;;;1.30;1.00;;;22.30;99.90;;;;;;5113948;28;20885;-75
2021/07/15 13:26:49;;;;;;;1.30;1.00;;;22.30;99.90;;;;;;5114391;28;20534;-75
2021/07/15 13:29:17;;;;;;;2.40;1.30;;;22.60;73.20;;;;;;5113931;28;20511;-76
2021/07/15 13:31:44;;;;;;;2.00;1.30;;;22.30;99.90;;;;;;5114202;28;20984;-75
2021/07/15 13:34:13;;;;;;;1.20;0.93;;;21.90;1.00;;;;;;5113826;28;20493;-73